This is the latest recevied weather packets stored in our database for station/object F4IKI-10. If no packets are shown the sender has not sent any weather packets the latest 10 day(s).
| Time | Temp. | Humidity | Pressure | Rain* | Wind** | Luminosity | Snow |
|---|---|---|---|---|---|---|---|
| 1777544811 | 18.33° C | 64% | 1019.8 hPa | - | - | - | - |
| 1777543911 | 18.33° C | 65% | 1019.7 hPa | - | - | - | - |
| 1777543011 | 18.89° C | 66% | 1019.5 hPa | - | - | - | - |
| 1777542111 | 18.89° C | 67% | 1019.7 hPa | - | - | - | - |
| 1777541211 | 18.33° C | 68% | 1019.3 hPa | - | - | - | - |
| 1777540311 | 18.33° C | 67% | 1018.9 hPa | - | - | - | - |
| 1777539411 | 18.89° C | 68% | 1018.8 hPa | - | - | - | - |
| 1777538510 | 18.89° C | 69% | 1018.7 hPa | - | - | - | - |
| 1777537610 | 18.89° C | 72% | 1018.6 hPa | - | - | - | - |
| 1777536710 | 19.44° C | 73% | 1018.3 hPa | - | - | - | - |
| 1777535810 | 20° C | 70% | 1018.1 hPa | - | - | - | - |
| 1777534910 | 20° C | 70% | 1018.1 hPa | - | - | - | - |
| 1777534010 | 20° C | 70% | 1018.1 hPa | - | - | - | - |
| 1777533110 | 20° C | 70% | 1017.9 hPa | - | - | - | - |
| 1777532210 | 20° C | 70% | 1017.9 hPa | - | - | - | - |
| 1777531310 | 19.44° C | 70% | 1017.9 hPa | - | - | - | - |
| 1777530409 | 19.44° C | 71% | 1018.4 hPa | - | - | - | - |
| 1777529509 | 18.33° C | 76% | 1018.3 hPa | - | - | - | - |
| 1777528609 | 18.89° C | 75% | 1017.1 hPa | - | - | - | - |
| 1777527709 | 18.89° C | 74% | 1016.6 hPa | - | - | - | - |
| 1777526809 | 18.89° C | 74% | 1016.5 hPa | - | - | - | - |
| 1777525909 | 20° C | 69% | 1016.3 hPa | - | - | - | - |
| 1777525009 | 20.56° C | 68% | 1016.6 hPa | - | - | - | - |
| 1777524109 | 20.56° C | 68% | 1016.3 hPa | - | - | - | - |
| 1777523209 | 20.56° C | 68% | 1016.3 hPa | - | - | - | - |
* Rain since midnight (hover to see other rain measurements)
** Current wind speed in m/s (hover to see current wind gust speed)